KBWI/BWI METAR and TAF weather

Enter ICAO airport designator
Station Type Date Time Source
KBWI METAR 2018/04/27 00:54 UTC NOAA

KBWI 270054Z 14005KT 10SM BKN160 BKN250 16/05 A2987 RMK AO2 SLP113 T01610050


Station Type Date Time Source
KBWI Decoded METAR 2018/04/27 00:54 UTC NOAA

BALTIMORE-WASHINGTON INTERNATIONAL , MD, United States (KBWI) 39-10N 076-41W 59M
Apr 26, 2018 - 08:54 PM EDT / 2018.04.27 0054 UTC
Wind: from the SE (140 degrees) at 6 MPH (5 KT):0
Visibility: 10 mile(s):0
Sky conditions: mostly cloudy
Temperature: 61.0 F (16.1 C)
Dew Point: 41.0 F (5.0 C)
Relative Humidity: 47%
Pressure (altimeter): 29.87 in. Hg (1011 hPa)
ob: KBWI 270054Z 14005KT 10SM BKN160 BKN250 16/05 A2987 RMK AO2 SLP113 T01610050
cycle: 1

Station Type Date Time Source
KBWI TAF 2018/04/26 21:48 UTC NOAA

TAF
AMD KBWI 262035Z 2621/2724 31008KT P6SM SKC
FM270000 27004KT P6SM OVC150
FM270600 00000KT P6SM -RA OVC060
FM270900 09004KT P6SM -RA OVC025
FM271200 07005KT 4SM -RA OVC008
FM271800 01006KT P6SM OVC015


Example: see airport list